createdAt,value
2018-12-30T00:00:23.456Z,3.77
2018-12-30T00:02:50.947Z,3.67
2018-12-30T00:05:18.480Z,3.50
2018-12-30T00:07:46.116Z,3.40
2018-12-30T00:10:13.520Z,3.43
2018-12-30T00:12:41.191Z,3.33
2018-12-30T00:15:09.201Z,2.97
2018-12-30T00:17:37.205Z,3.80
2018-12-30T00:20:05.166Z,3.63
2018-12-30T00:22:32.536Z,3.40
2018-12-30T00:25:01.377Z,2.73
2018-12-30T00:27:29.662Z,3.30
2018-12-30T00:29:56.777Z,3.73
2018-12-30T00:32:24.244Z,3.77
2018-12-30T00:34:52.224Z,3.10
2018-12-30T00:37:20.098Z,4.40
2018-12-30T00:39:47.984Z,9.30
2018-12-30T00:42:15.266Z,5.87
2018-12-30T00:44:42.792Z,3.60
2018-12-30T00:47:10.995Z,3.27
2018-12-30T00:49:39.031Z,2.80
2018-12-30T00:52:07.439Z,3.33
2018-12-30T00:54:35.220Z,3.33
2018-12-30T00:57:03.112Z,2.50
2018-12-30T00:59:31.174Z,2.90
2018-12-30T01:01:58.776Z,3.23
2018-12-30T01:04:25.939Z,2.60
2018-12-30T01:06:53.763Z,2.40
2018-12-30T01:09:21.554Z,2.43
2018-12-30T01:11:50.180Z,2.20
2018-12-30T01:14:17.451Z,5.70
2018-12-30T01:16:45.339Z,3.50
2018-12-30T01:19:12.904Z,2.47
2018-12-30T01:21:40.312Z,2.87
2018-12-30T01:24:07.636Z,1.80
2018-12-30T01:26:35.383Z,1.90
2018-12-30T01:29:03.566Z,1.83
2018-12-30T01:31:32.601Z,2.40
2018-12-30T01:34:00.424Z,1.90
2018-12-30T01:36:27.624Z,1.53
2018-12-30T01:38:55.125Z,1.67
2018-12-30T01:41:22.149Z,2.03
2018-12-30T01:43:50.187Z,1.47
2018-12-30T01:46:18.507Z,1.90
2018-12-30T01:48:46.291Z,1.90
2018-12-30T01:51:14.116Z,2.57
2018-12-30T01:53:41.921Z,1.53
2018-12-30T01:56:09.761Z,2.20
2018-12-30T01:58:36.938Z,1.90
2018-12-30T02:01:04.363Z,2.07
2018-12-30T02:03:31.470Z,1.93
2018-12-30T02:05:58.735Z,2.20
2018-12-30T02:08:25.924Z,1.77
2018-12-30T02:10:53.832Z,1.80
2018-12-30T02:13:20.958Z,1.40
2018-12-30T02:15:49.908Z,2.10
2018-12-30T02:18:17.305Z,1.33
2018-12-30T02:20:44.683Z,1.20
2018-12-30T02:23:12.045Z,1.63
2018-12-30T02:25:39.347Z,1.70
2018-12-30T02:28:07.811Z,1.70
2018-12-30T02:30:35.021Z,1.40
2018-12-30T02:33:02.543Z,1.77
2018-12-30T02:35:30.476Z,1.43
2018-12-30T02:37:57.636Z,1.13
2018-12-30T02:40:25.132Z,1.30
2018-12-30T02:42:53.170Z,1.30
2018-12-30T02:45:21.098Z,1.57
2018-12-30T02:47:48.379Z,1.70
2018-12-30T02:50:15.899Z,2.10
2018-12-30T02:52:43.553Z,1.53
2018-12-30T02:55:11.715Z,1.70
2018-12-30T02:57:40.046Z,1.60
2018-12-30T03:00:07.591Z,1.87
2018-12-30T03:02:35.410Z,1.40
2018-12-30T03:05:03.609Z,1.53
2018-12-30T03:07:31.351Z,1.73
2018-12-30T03:09:58.757Z,2.40
2018-12-30T03:12:26.541Z,9.43
2018-12-30T03:14:53.800Z,5.90
2018-12-30T03:17:21.476Z,2.27
2018-12-30T03:19:48.624Z,1.67
2018-12-30T03:22:16.183Z,2.00
2018-12-30T03:24:44.128Z,1.40
2018-12-30T03:27:11.899Z,1.43
2018-12-30T03:29:39.358Z,1.70
2018-12-30T03:32:07.922Z,1.50
2018-12-30T03:34:35.104Z,1.50
2018-12-30T03:37:02.159Z,1.80
2018-12-30T03:39:30.199Z,1.50
2018-12-30T03:41:57.419Z,1.60
2018-12-30T03:44:25.507Z,1.70
2018-12-30T03:46:53.117Z,2.13
2018-12-30T03:49:20.334Z,1.40
2018-12-30T03:51:49.056Z,1.60
2018-12-30T03:54:16.192Z,1.53
2018-12-30T03:56:43.765Z,1.30
2018-12-30T03:59:12.045Z,1.70
2018-12-30T04:01:39.818Z,1.27
2018-12-30T04:04:07.695Z,1.43
2018-12-30T04:06:35.794Z,2.17
2018-12-30T04:09:05.069Z,1.43
2018-12-30T04:11:33.233Z,1.70
2018-12-30T04:14:00.447Z,1.43
2018-12-30T04:16:27.586Z,2.43
2018-12-30T04:18:55.216Z,1.47
2018-12-30T04:21:22.748Z,1.60
2018-12-30T04:23:50.343Z,1.67
2018-12-30T04:26:17.774Z,1.30
2018-12-30T04:28:45.821Z,1.83
2018-12-30T04:31:13.871Z,1.63
2018-12-30T04:33:41.244Z,2.47
2018-12-30T04:36:08.431Z,1.70
2018-12-30T04:38:35.979Z,2.20
2018-12-30T04:41:03.145Z,1.97
2018-12-30T04:43:31.291Z,1.90
2018-12-30T04:45:58.928Z,2.00
2018-12-30T04:48:26.356Z,2.00
2018-12-30T04:50:53.517Z,1.33
2018-12-30T04:53:22.171Z,1.83
2018-12-30T04:55:50.036Z,1.70
2018-12-30T04:58:17.792Z,2.17
2018-12-30T05:00:45.188Z,2.23
2018-12-30T05:03:13.154Z,1.37
2018-12-30T05:05:40.931Z,1.40
2018-12-30T05:08:08.732Z,1.97
2018-12-30T05:10:36.176Z,2.30
2018-12-30T05:13:04.103Z,2.30
2018-12-30T05:15:32.795Z,1.70
2018-12-30T05:18:00.255Z,1.80
2018-12-30T05:20:29.399Z,1.97
2018-12-30T05:22:57.287Z,1.70
2018-12-30T05:25:25.036Z,1.87
2018-12-30T05:27:52.415Z,1.73
2018-12-30T05:30:20.153Z,1.57
2018-12-30T05:32:47.893Z,2.10
2018-12-30T05:35:15.528Z,1.37
2018-12-30T05:37:44.104Z,1.03
2018-12-30T05:40:11.983Z,1.43
2018-12-30T05:42:40.181Z,1.40
2018-12-30T05:45:07.820Z,2.10
2018-12-30T05:47:36.644Z,1.43
2018-12-30T05:50:05.177Z,1.57
2018-12-30T05:52:32.312Z,1.50
2018-12-30T05:55:00.276Z,1.43
2018-12-30T05:57:27.442Z,1.60
2018-12-30T05:59:54.512Z,1.50
2018-12-30T06:02:21.546Z,2.03
2018-12-30T06:04:49.520Z,1.20
2018-12-30T06:07:16.567Z,2.17
2018-12-30T06:09:43.637Z,1.70
2018-12-30T06:12:11.142Z,1.70
2018-12-30T06:14:39.163Z,1.53
2018-12-30T06:17:07.868Z,1.97
2018-12-30T06:19:35.389Z,1.50
2018-12-30T06:22:04.210Z,1.70
2018-12-30T06:24:31.553Z,1.50
2018-12-30T06:26:58.592Z,1.90
2018-12-30T06:29:25.480Z,1.43
2018-12-30T06:31:53.622Z,1.43
2018-12-30T06:34:21.368Z,1.33
2018-12-30T06:36:48.699Z,1.70
2018-12-30T06:39:16.936Z,1.93
2018-12-30T06:41:44.308Z,1.90
2018-12-30T06:44:11.527Z,1.43
2018-12-30T06:46:39.032Z,1.67
2018-12-30T06:49:07.767Z,1.50
2018-12-30T06:51:35.219Z,1.80
2018-12-30T06:54:02.671Z,2.97
2018-12-30T06:56:30.345Z,1.77
2018-12-30T06:58:57.511Z,1.80
2018-12-30T07:01:26.312Z,1.67
2018-12-30T07:03:53.544Z,1.67
2018-12-30T07:06:21.136Z,2.33
2018-12-30T07:08:48.801Z,1.77
2018-12-30T07:11:16.741Z,2.07
2018-12-30T07:13:44.441Z,2.03
2018-12-30T07:16:11.783Z,1.87
2018-12-30T07:18:39.408Z,1.47
2018-12-30T07:21:07.784Z,2.13
2018-12-30T07:23:34.719Z,1.93
2018-12-30T07:26:02.283Z,1.90
2018-12-30T07:28:29.396Z,1.23
2018-12-30T07:30:57.940Z,1.70
2018-12-30T07:33:25.093Z,1.83
2018-12-30T07:35:52.420Z,1.87
2018-12-30T07:38:19.358Z,2.07
2018-12-30T07:40:46.742Z,1.53
2018-12-30T07:43:14.799Z,1.40
2018-12-30T07:45:42.382Z,1.50
2018-12-30T07:48:09.562Z,1.30
2018-12-30T07:50:36.787Z,1.47
2018-12-30T07:53:04.432Z,1.70
2018-12-30T07:55:31.887Z,1.43
2018-12-30T07:57:59.151Z,1.63
2018-12-30T08:00:27.827Z,1.63
2018-12-30T08:02:56.518Z,1.50
2018-12-30T08:05:24.459Z,1.63
2018-12-30T08:07:51.873Z,2.03
2018-12-30T08:10:19.807Z,1.40
2018-12-30T08:12:47.569Z,1.63
2018-12-30T08:15:15.474Z,1.33
2018-12-30T08:17:42.903Z,1.60
2018-12-30T08:20:10.783Z,1.70
2018-12-30T08:22:38.311Z,1.73
2018-12-30T08:25:05.440Z,1.60
2018-12-30T08:27:33.253Z,1.70
2018-12-30T08:30:01.029Z,1.17
2018-12-30T08:32:28.448Z,1.60
2018-12-30T08:34:55.848Z,2.10
2018-12-30T08:37:25.745Z,1.47
2018-12-30T08:39:54.720Z,2.13
2018-12-30T08:42:21.615Z,1.80
2018-12-30T08:44:50.651Z,1.57
2018-12-30T08:47:17.849Z,1.87
2018-12-30T08:49:45.218Z,1.80
2018-12-30T08:52:13.327Z,2.13
2018-12-30T08:54:41.207Z,2.13
2018-12-30T08:57:08.729Z,1.80
2018-12-30T08:59:36.101Z,1.87
2018-12-30T09:02:03.287Z,2.20
2018-12-30T09:04:30.689Z,2.00
2018-12-30T09:06:58.279Z,2.03
2018-12-30T09:09:25.508Z,1.37
2018-12-30T09:11:53.106Z,2.30
2018-12-30T09:14:21.082Z,2.43
2018-12-30T09:16:49.043Z,2.20
2018-12-30T09:19:16.208Z,2.33
2018-12-30T09:21:43.547Z,1.77
2018-12-30T09:24:11.127Z,1.50
2018-12-30T09:26:39.396Z,2.27
2018-12-30T09:29:06.544Z,2.47
2018-12-30T09:31:33.856Z,2.30
2018-12-30T09:34:01.395Z,1.97
2018-12-30T09:36:28.414Z,2.73
2018-12-30T09:38:55.887Z,2.13
2018-12-30T09:41:23.315Z,2.60
2018-12-30T09:43:50.880Z,2.20
2018-12-30T09:46:18.469Z,2.17
2018-12-30T09:48:45.920Z,1.97
2018-12-30T09:51:13.528Z,1.90
2018-12-30T09:53:45.073Z,2.23
2018-12-30T09:56:10.624Z,2.17
2018-12-30T09:58:37.963Z,2.10
2018-12-30T10:01:05.092Z,1.90
2018-12-30T10:03:32.312Z,2.37
2018-12-30T10:05:59.485Z,2.20
2018-12-30T10:08:26.644Z,2.10
2018-12-30T10:10:54.120Z,1.93
2018-12-30T10:13:21.491Z,2.40
2018-12-30T10:15:49.051Z,2.63
2018-12-30T10:18:16.537Z,2.70
2018-12-30T10:20:44.167Z,2.47
2018-12-30T10:23:11.620Z,2.60
2018-12-30T10:25:39.159Z,2.93
2018-12-30T10:28:06.164Z,3.47
2018-12-30T10:30:33.464Z,3.00
2018-12-30T10:33:00.891Z,2.57
2018-12-30T10:35:29.632Z,3.10
2018-12-30T10:37:56.916Z,2.77
2018-12-30T10:40:33.671Z,2.40
2018-12-30T10:43:06.079Z,2.90
2018-12-30T10:45:34.347Z,3.03
2018-12-30T10:48:03.197Z,2.83
2018-12-30T10:50:30.795Z,3.17
2018-12-30T10:52:58.375Z,2.70
2018-12-30T10:55:26.064Z,2.70
2018-12-30T10:57:54.136Z,3.90
2018-12-30T11:00:22.413Z,3.23
2018-12-30T11:02:50.495Z,3.30
2018-12-30T11:05:17.951Z,3.83
2018-12-30T11:07:45.709Z,2.80
2018-12-30T11:10:13.358Z,4.33
2018-12-30T11:12:40.811Z,3.43
2018-12-30T11:15:08.125Z,3.00
2018-12-30T11:17:35.866Z,4.67
2018-12-30T11:20:04.011Z,3.80
2018-12-30T11:22:32.152Z,4.03
2018-12-30T11:25:00.968Z,3.60
2018-12-30T11:27:27.948Z,3.87
2018-12-30T11:29:55.686Z,4.17
2018-12-30T11:32:25.987Z,3.73
2018-12-30T11:34:53.079Z,4.47
2018-12-30T11:37:20.822Z,3.53
2018-12-30T11:39:47.740Z,3.53
2018-12-30T11:42:16.493Z,4.00
2018-12-30T11:44:43.876Z,4.47
2018-12-30T11:47:11.647Z,3.30
2018-12-30T11:49:38.691Z,4.27
2018-12-30T11:52:06.299Z,4.57
2018-12-30T11:54:33.731Z,3.43
2018-12-30T11:57:01.039Z,4.63
2018-12-30T11:59:28.552Z,4.03
2018-12-30T12:01:55.717Z,3.67
2018-12-30T12:04:22.860Z,3.90
2018-12-30T12:06:51.208Z,4.17
2018-12-30T12:09:19.654Z,14.50
2018-12-30T12:11:47.535Z,8.43
2018-12-30T12:14:14.924Z,4.50
2018-12-30T12:16:41.936Z,4.13
2018-12-30T12:19:09.748Z,5.13
2018-12-30T12:21:36.872Z,4.20
2018-12-30T12:24:04.862Z,4.60
2018-12-30T12:26:31.924Z,4.07
2018-12-30T12:28:58.812Z,4.80
2018-12-30T12:31:26.119Z,3.80
2018-12-30T12:33:53.235Z,4.07
2018-12-30T12:36:21.063Z,3.57
2018-12-30T12:38:48.088Z,3.97
2018-12-30T12:41:18.818Z,4.30
2018-12-30T12:43:46.869Z,3.90
2018-12-30T12:46:14.672Z,3.10
2018-12-30T12:48:42.627Z,3.33
2018-12-30T12:51:10.187Z,3.67
2018-12-30T12:53:37.541Z,3.50
2018-12-30T12:56:04.529Z,2.87
2018-12-30T12:58:31.967Z,3.67
2018-12-30T13:00:59.142Z,3.60
2018-12-30T13:03:27.499Z,2.80
2018-12-30T13:05:55.579Z,3.10
2018-12-30T13:08:23.335Z,3.40
2018-12-30T13:10:50.379Z,2.67
2018-12-30T13:13:18.229Z,1.80
2018-12-30T13:15:45.973Z,2.00
2018-12-30T13:18:13.404Z,2.23
2018-12-30T13:20:41.027Z,2.80
2018-12-30T13:23:08.310Z,2.40
2018-12-30T13:25:36.758Z,1.70
2018-12-30T13:28:04.984Z,2.20
2018-12-30T13:30:32.199Z,3.57
2018-12-30T13:33:01.221Z,4.93
2018-12-30T13:35:29.500Z,6.03
2018-12-30T13:37:58.718Z,5.83
2018-12-30T13:40:26.144Z,3.10
2018-12-30T13:42:54.737Z,3.10
2018-12-30T13:45:21.909Z,2.83
2018-12-30T13:47:49.652Z,2.30
2018-12-30T13:50:17.203Z,2.93
2018-12-30T13:52:44.092Z,2.93
2018-12-30T13:55:12.161Z,2.80
2018-12-30T13:57:40.321Z,4.00
2018-12-30T14:00:08.272Z,1.77
2018-12-30T14:02:35.338Z,1.50
2018-12-30T14:05:03.190Z,1.47
2018-12-30T14:07:31.263Z,1.67
2018-12-30T14:09:59.244Z,2.10
2018-12-30T14:12:26.353Z,1.60
2018-12-30T14:14:54.139Z,1.80
2018-12-30T14:17:23.035Z,1.80
2018-12-30T14:19:50.213Z,1.90
2018-12-30T14:22:17.948Z,2.10
2018-12-30T14:24:55.171Z,1.33
2018-12-30T14:27:17.716Z,2.33
2018-12-30T14:29:46.699Z,2.73
2018-12-30T14:32:13.916Z,2.10
2018-12-30T14:34:41.821Z,2.07
2018-12-30T14:37:09.827Z,2.10
2018-12-30T14:39:39.637Z,2.13
2018-12-30T14:42:07.566Z,2.20
2018-12-30T14:44:36.490Z,2.10
2018-12-30T14:47:04.420Z,2.07
2018-12-30T14:49:31.716Z,2.00
2018-12-30T14:52:00.512Z,2.23
2018-12-30T14:54:27.625Z,2.20
2018-12-30T14:56:54.937Z,1.83
2018-12-30T14:59:22.661Z,2.97
2018-12-30T15:01:50.136Z,1.60
2018-12-30T15:04:17.284Z,1.50
2018-12-30T15:06:44.860Z,1.70
2018-12-30T15:09:12.659Z,1.70
2018-12-30T15:11:39.825Z,1.50
2018-12-30T15:14:07.525Z,1.43
2018-12-30T15:16:37.007Z,1.70
2018-12-30T15:19:04.031Z,1.87
2018-12-30T15:21:31.576Z,2.23
2018-12-30T15:23:58.589Z,1.63
2018-12-30T15:26:26.481Z,1.60
2018-12-30T15:28:54.502Z,1.60
2018-12-30T15:31:22.000Z,1.63
2018-12-30T15:33:49.135Z,1.70
2018-12-30T15:36:16.134Z,1.40
2018-12-30T15:38:44.265Z,2.10
2018-12-30T15:41:11.620Z,2.77
2018-12-30T15:43:39.072Z,1.50
2018-12-30T15:46:06.824Z,1.50
2018-12-30T15:48:33.755Z,1.43
2018-12-30T15:51:01.202Z,2.13
2018-12-30T15:53:28.339Z,1.80
2018-12-30T15:55:56.401Z,2.50
2018-12-30T15:58:23.868Z,2.27
2018-12-30T16:00:51.171Z,1.77
2018-12-30T16:03:18.457Z,2.43
2018-12-30T16:05:47.572Z,2.27
2018-12-30T16:08:15.136Z,1.90
2018-12-30T16:10:42.648Z,2.00
2018-12-30T16:13:11.848Z,2.10
2018-12-30T16:15:39.919Z,3.83
2018-12-30T16:18:07.068Z,3.00
2018-12-30T16:20:35.075Z,2.80
2018-12-30T16:23:02.684Z,2.80
2018-12-30T16:25:32.127Z,2.80
2018-12-30T16:28:00.775Z,2.93
2018-12-30T16:30:28.015Z,2.40
2018-12-30T16:32:55.691Z,2.40
2018-12-30T16:35:23.232Z,2.30
2018-12-30T16:37:50.400Z,7.60
2018-12-30T16:40:17.757Z,5.10
2018-12-30T16:42:44.784Z,5.10
2018-12-30T16:45:12.244Z,2.40
2018-12-30T16:47:42.052Z,2.50
2018-12-30T16:50:09.099Z,2.60
2018-12-30T16:52:37.905Z,2.13
2018-12-30T16:55:07.004Z,2.63
2018-12-30T16:57:34.135Z,2.50
2018-12-30T17:00:01.685Z,2.67
2018-12-30T17:02:29.368Z,1.83
2018-12-30T17:04:56.851Z,1.87
2018-12-30T17:07:24.136Z,2.93
2018-12-30T17:09:51.655Z,2.10
2018-12-30T17:12:19.144Z,2.77
2018-12-30T17:14:47.672Z,2.20
2018-12-30T17:17:14.784Z,2.10
2018-12-30T17:19:42.048Z,2.83
2018-12-30T17:22:10.070Z,2.13
2018-12-30T17:24:37.952Z,2.57
2018-12-30T17:27:05.944Z,2.37
2018-12-30T17:29:33.354Z,3.07
2018-12-30T17:32:02.240Z,3.37
2018-12-30T17:34:30.545Z,7.53
2018-12-30T17:36:57.836Z,3.70
2018-12-30T17:39:25.454Z,2.50
2018-12-30T17:41:52.917Z,3.00
2018-12-30T17:44:21.780Z,4.03
2018-12-30T17:46:49.493Z,3.00
2018-12-30T17:49:17.432Z,2.97
2018-12-30T17:51:44.771Z,3.13
2018-12-30T17:54:15.251Z,2.90
2018-12-30T17:56:42.133Z,2.77
2018-12-30T17:59:09.535Z,3.70
2018-12-30T18:01:39.711Z,2.83
2018-12-30T18:04:06.942Z,3.00
2018-12-30T18:06:35.001Z,2.83
2018-12-30T18:09:03.961Z,2.50
2018-12-30T18:11:31.247Z,3.50
2018-12-30T18:13:58.273Z,2.47
2018-12-30T18:16:25.912Z,2.93
2018-12-30T18:18:53.580Z,3.07
2018-12-30T18:21:22.678Z,3.07
2018-12-30T18:23:50.327Z,3.40
2018-12-30T18:26:17.605Z,3.40
2018-12-30T18:28:44.650Z,3.57
2018-12-30T18:31:12.260Z,2.53
2018-12-30T18:33:40.105Z,3.20
2018-12-30T18:36:08.333Z,3.13
2018-12-30T18:38:35.771Z,3.03
2018-12-30T18:41:03.910Z,3.23
2018-12-30T18:43:32.344Z,2.80
2018-12-30T18:45:59.195Z,2.77
2018-12-30T18:48:26.394Z,3.40
2018-12-30T18:50:53.630Z,3.03
2018-12-30T18:53:21.063Z,2.80
2018-12-30T18:55:48.076Z,3.07
2018-12-30T18:58:16.761Z,3.03
2018-12-30T19:00:45.551Z,3.20
2018-12-30T19:03:12.579Z,3.30
2018-12-30T19:05:40.376Z,2.53
2018-12-30T19:08:07.468Z,3.07
2018-12-30T19:10:34.644Z,3.07
2018-12-30T19:13:02.267Z,3.80
2018-12-30T19:15:30.788Z,3.30
2018-12-30T19:17:58.041Z,2.90
2018-12-30T19:20:26.911Z,3.50
2018-12-30T19:22:54.431Z,2.70
2018-12-30T19:25:22.583Z,2.90
2018-12-30T19:27:51.088Z,3.40
2018-12-30T19:30:18.804Z,4.23
2018-12-30T19:32:45.803Z,3.20
2018-12-30T19:35:14.540Z,3.43
2018-12-30T19:37:41.860Z,3.80
2018-12-30T19:40:10.523Z,3.50
2018-12-30T19:42:37.939Z,3.43
2018-12-30T19:45:05.838Z,3.47
2018-12-30T19:47:35.256Z,3.23
2018-12-30T19:50:02.513Z,3.90
2018-12-30T19:52:30.723Z,3.20
2018-12-30T19:55:00.900Z,3.00
2018-12-30T19:57:29.271Z,3.50
2018-12-30T19:59:56.593Z,2.87
2018-12-30T20:02:23.938Z,3.60
2018-12-30T20:04:51.564Z,3.23
2018-12-30T20:07:18.797Z,3.80
2018-12-30T20:09:46.118Z,3.70
2018-12-30T20:12:13.667Z,3.10
2018-12-30T20:14:43.462Z,4.10
2018-12-30T20:17:10.946Z,3.37
2018-12-30T20:19:37.959Z,3.83
2018-12-30T20:22:05.375Z,3.13
2018-12-30T20:24:32.957Z,3.27
2018-12-30T20:27:01.118Z,3.60
2018-12-30T20:29:29.537Z,3.63
2018-12-30T20:31:57.117Z,3.87
2018-12-30T20:34:26.736Z,3.50
2018-12-30T20:36:54.028Z,3.90
2018-12-30T20:39:22.549Z,3.50
2018-12-30T20:41:49.750Z,3.93
2018-12-30T20:44:16.924Z,4.03
2018-12-30T20:46:44.087Z,4.20
2018-12-30T20:49:11.125Z,4.10
2018-12-30T20:51:38.472Z,3.13
2018-12-30T20:54:06.965Z,3.50
2018-12-30T20:56:37.824Z,3.30
2018-12-30T20:59:03.296Z,3.30
2018-12-30T21:01:30.467Z,2.87
2018-12-30T21:03:57.657Z,3.23
2018-12-30T21:06:24.731Z,3.13
2018-12-30T21:08:54.483Z,3.63
2018-12-30T21:11:21.751Z,2.80
2018-12-30T21:13:49.701Z,3.40
2018-12-30T21:16:16.775Z,3.30
2018-12-30T21:18:44.079Z,3.30
2018-12-30T21:21:11.096Z,3.47
2018-12-30T21:23:38.615Z,3.77
2018-12-30T21:26:09.235Z,3.43
2018-12-30T21:28:36.276Z,3.47
2018-12-30T21:31:03.771Z,3.40
2018-12-30T21:33:31.574Z,3.33
2018-12-30T21:36:03.276Z,3.00
2018-12-30T21:38:31.211Z,3.53
2018-12-30T21:41:00.331Z,3.30
2018-12-30T21:43:30.010Z,4.13
2018-12-30T21:45:59.241Z,4.03
2018-12-30T21:48:28.349Z,3.83
2018-12-30T21:50:58.095Z,3.70
2018-12-30T21:53:25.312Z,3.60
2018-12-30T21:55:52.931Z,4.10
2018-12-30T21:58:19.812Z,5.37
2018-12-30T22:00:47.229Z,4.73
2018-12-30T22:03:14.851Z,4.33
2018-12-30T22:05:41.998Z,4.13
2018-12-30T22:08:09.319Z,4.47
2018-12-30T22:10:36.708Z,3.73
2018-12-30T22:13:04.537Z,3.43
2018-12-30T22:15:32.820Z,3.80
2018-12-30T22:18:00.828Z,3.60
2018-12-30T22:20:28.829Z,3.27
2018-12-30T22:22:55.988Z,3.63
2018-12-30T22:25:23.095Z,3.43
2018-12-30T22:27:51.534Z,3.50
2018-12-30T22:30:19.195Z,3.13
2018-12-30T22:32:46.181Z,3.40
2018-12-30T22:35:13.348Z,2.73
2018-12-30T22:37:41.011Z,3.80
2018-12-30T22:40:08.625Z,14.83
2018-12-30T22:42:36.243Z,3.77
2018-12-30T22:45:04.091Z,3.30
2018-12-30T22:47:32.167Z,3.23
2018-12-30T22:50:01.257Z,2.87
2018-12-30T22:52:31.187Z,3.57
2018-12-30T22:54:59.946Z,3.90
2018-12-30T22:57:27.887Z,3.30
2018-12-30T22:59:55.333Z,3.97
2018-12-30T23:02:23.320Z,3.00
2018-12-30T23:04:51.527Z,3.50
2018-12-30T23:07:18.928Z,3.37
2018-12-30T23:09:47.355Z,3.47
2018-12-30T23:12:15.495Z,3.93
2018-12-30T23:14:42.717Z,3.60
2018-12-30T23:17:11.015Z,3.33
2018-12-30T23:19:37.913Z,4.17
2018-12-30T23:22:04.928Z,3.93
2018-12-30T23:24:32.339Z,4.80
2018-12-30T23:27:00.163Z,4.17
2018-12-30T23:29:27.872Z,4.17
2018-12-30T23:31:56.455Z,5.23
2018-12-30T23:34:23.618Z,4.80
2018-12-30T23:36:50.611Z,4.70
2018-12-30T23:39:17.888Z,5.57
2018-12-30T23:41:45.024Z,5.60
2018-12-30T23:44:12.235Z,6.03
2018-12-30T23:46:39.100Z,5.90
2018-12-30T23:49:06.275Z,5.40
2018-12-30T23:51:33.888Z,5.77
2018-12-30T23:54:00.880Z,5.33
2018-12-30T23:56:28.316Z,5.87
2018-12-30T23:58:55.333Z,5.30
